Time;durP1;ratioP1;P1;durP2;ratioP2;P2;SDS_P1;SDS_P2;PMS_P1;PMS_P2;Temp;Humidity;BMP_temperature;BMP_pressure;BME280_temperature;BME280_humidity;BME280_pressure;Samples;Min_cycle;Max_cycle;Signal;HPM_P1;HPM_P2
2024/02/15 00:02:23;;;;;;;9.37;6.30;;;13.50;99.90;;;;;;5055042;28;20815;-55
2024/02/15 00:04:50;;;;;;;9.73;5.70;;;13.50;99.90;;;;;;5054818;28;20799;-55
2024/02/15 00:07:17;;;;;;;11.60;7.00;;;13.50;99.90;;;;;;5055179;28;20438;-55
2024/02/15 00:09:45;;;;;;;10.90;6.10;;;13.50;99.90;;;;;;5054723;28;20489;-56
2024/02/15 00:12:12;;;;;;;11.30;6.00;;;13.50;99.90;;;;;;5054826;28;20441;-56
2024/02/15 00:14:39;;;;;;;12.87;5.73;;;13.50;99.90;;;;;;5054799;28;20445;-56
2024/02/15 00:17:06;;;;;;;12.40;5.53;;;13.60;99.90;;;;;;5053642;28;20481;-56
2024/02/15 00:19:33;;;;;;;6.07;4.80;;;13.60;99.90;;;;;;5054533;28;20461;-55
2024/02/15 00:22:00;;;;;;;17.77;5.90;;;13.60;99.90;;;;;;5054479;28;20818;-56
2024/02/15 00:24:27;;;;;;;8.83;5.27;;;13.60;99.90;;;;;;5054430;28;20819;-56
2024/02/15 00:26:55;;;;;;;9.10;5.00;;;13.70;99.90;;;;;;5054429;28;20456;-55
2024/02/15 00:29:22;;;;;;;8.50;5.10;;;13.70;99.90;;;;;;5054453;28;20480;-56
2024/02/15 00:31:49;;;;;;;5.27;4.60;;;13.70;99.90;;;;;;5054380;28;20468;-55
2024/02/15 00:34:17;;;;;;;10.77;5.00;;;13.70;99.90;;;;;;5054143;28;20445;-55
2024/02/15 00:36:44;;;;;;;10.30;5.30;;;13.70;99.90;;;;;;5054279;28;20837;-56
2024/02/15 00:39:12;;;;;;;10.07;4.63;;;13.80;99.90;;;;;;5053789;28;20466;-55
2024/02/15 00:41:41;;;;;;;7.60;4.80;;;13.70;99.90;;;;;;5054182;28;20505;-55
2024/02/15 00:44:10;;;;;;;8.40;4.73;;;13.80;99.90;;;;;;5054208;28;20450;-55
2024/02/15 00:46:37;;;;;;;10.30;5.30;;;13.70;99.90;;;;;;5053952;28;20492;-56
2024/02/15 00:49:06;;;;;;;6.23;4.60;;;13.80;99.90;;;;;;5054003;28;20461;-55
2024/02/15 00:51:33;;;;;;;12.30;4.00;;;13.80;99.90;;;;;;5054062;28;20944;-55
2024/02/15 00:54:00;;;;;;;5.03;4.40;;;13.80;99.90;;;;;;5054078;28;20461;-56
2024/02/15 00:56:27;;;;;;;12.53;4.90;;;13.80;99.90;;;;;;5053746;28;20451;-56
2024/02/15 00:58:54;;;;;;;17.70;4.97;;;13.80;99.90;;;;;;5053210;28;21003;-56
2024/02/15 01:01:23;;;;;;;7.40;4.20;;;13.80;99.90;;;;;;5053765;28;20448;-55
2024/02/15 01:03:50;;;;;;;8.50;3.73;;;13.90;99.90;;;;;;5054050;28;20482;-55
2024/02/15 01:06:17;;;;;;;9.43;4.50;;;13.90;99.90;;;;;;5054322;28;20460;-56
2024/02/15 01:08:43;;;;;;;7.83;3.80;;;13.80;99.90;;;;;;5053651;28;20500;-55
2024/02/15 01:11:10;;;;;;;9.33;4.20;;;13.80;99.90;;;;;;5054098;28;20947;-55
2024/02/15 01:13:37;;;;;;;18.80;5.00;;;13.80;99.90;;;;;;5053867;28;20477;-55
2024/02/15 01:16:04;;;;;;;5.50;3.53;;;13.90;99.90;;;;;;5053687;28;20452;-55
2024/02/15 01:18:33;;;;;;;9.33;3.97;;;13.80;99.90;;;;;;5054268;28;20489;-55
2024/02/15 01:20:59;;;;;;;7.60;4.13;;;13.90;99.90;;;;;;5054099;28;20446;-55
2024/02/15 01:23:26;;;;;;;8.60;4.10;;;13.90;99.90;;;;;;5055041;28;20452;-55
2024/02/15 01:25:53;;;;;;;12.90;4.20;;;13.90;99.90;;;;;;5054288;28;20449;-55
2024/02/15 01:28:20;;;;;;;8.57;3.53;;;13.90;99.90;;;;;;5054150;28;20462;-55
2024/02/15 01:30:47;;;;;;;9.10;3.90;;;13.90;99.90;;;;;;5055377;28;20445;-55
2024/02/15 01:33:14;;;;;;;13.53;4.20;;;13.90;99.90;;;;;;5055604;28;20446;-55
2024/02/15 01:35:42;;;;;;;8.23;4.33;;;13.90;99.90;;;;;;5054447;28;20446;-55
2024/02/15 01:38:08;;;;;;;6.77;3.70;;;13.90;99.90;;;;;;5053120;28;20491;-56
2024/02/15 01:40:36;;;;;;;6.40;3.90;;;13.90;99.90;;;;;;5052941;28;20895;-55
2024/02/15 01:43:03;;;;;;;8.10;3.93;;;13.90;99.90;;;;;;5052714;28;20799;-55
2024/02/15 01:45:29;;;;;;;10.63;4.50;;;13.90;99.90;;;;;;5053066;28;20528;-55
2024/02/15 01:47:56;;;;;;;7.73;3.60;;;13.90;99.90;;;;;;5053252;28;20461;-55
2024/02/15 01:50:24;;;;;;;9.30;3.37;;;13.90;99.90;;;;;;5053356;28;20495;-55
2024/02/15 01:52:56;;;;;;;7.03;3.60;;;13.90;99.90;;;;;;5052807;28;20442;-55
2024/02/15 01:55:24;;;;;;;8.73;4.63;;;13.90;99.90;;;;;;5053127;28;20449;-55
2024/02/15 01:57:51;;;;;;;15.37;4.30;;;13.90;99.90;;;;;;5052813;28;20595;-55
2024/02/15 02:00:19;;;;;;;12.23;4.10;;;13.90;99.90;;;;;;5052859;28;20437;-55
2024/02/15 02:02:47;;;;;;;13.33;4.30;;;13.90;99.90;;;;;;5053153;28;20441;-55
2024/02/15 02:05:13;;;;;;;10.80;4.00;;;13.90;99.90;;;;;;5052854;28;20445;-55
2024/02/15 02:07:41;;;;;;;8.40;3.70;;;13.90;99.90;;;;;;5052794;28;20442;-55
2024/02/15 02:10:11;;;;;;;9.70;3.97;;;13.90;99.90;;;;;;5053602;28;20441;-55
2024/02/15 02:12:39;;;;;;;9.83;4.13;;;13.90;99.90;;;;;;5052719;28;20544;-55
2024/02/15 02:15:07;;;;;;;9.43;4.60;;;13.90;99.90;;;;;;5052942;28;20442;-55
2024/02/15 02:17:35;;;;;;;10.07;3.83;;;13.90;99.90;;;;;;5052764;28;20535;-55
2024/02/15 02:20:07;;;;;;;11.50;3.90;;;13.90;99.90;;;;;;5052674;28;20460;-55
2024/02/15 02:22:35;;;;;;;8.60;4.00;;;13.90;99.90;;;;;;5052968;28;20429;-55
2024/02/15 02:25:08;;;;;;;9.00;3.93;;;13.90;99.90;;;;;;5053288;28;20445;-55
2024/02/15 02:27:35;;;;;;;5.87;3.27;;;13.90;99.90;;;;;;5052609;28;20465;-56
2024/02/15 02:30:06;;;;;;;12.37;4.00;;;13.90;99.90;;;;;;5052527;28;20476;-55
2024/02/15 02:32:34;;;;;;;11.70;3.57;;;13.90;99.90;;;;;;5052936;28;20837;-55
2024/02/15 02:35:01;;;;;;;11.03;4.23;;;13.90;99.90;;;;;;5052591;28;20452;-55
2024/02/15 02:37:29;;;;;;;7.90;3.40;;;13.90;99.90;;;;;;5052417;28;20448;-56
2024/02/15 02:39:55;;;;;;;8.70;3.80;;;13.90;99.90;;;;;;5054172;28;20962;-55
2024/02/15 02:42:24;;;;;;;5.23;3.33;;;13.80;99.90;;;;;;5056509;28;20437;-55
2024/02/15 02:44:50;;;;;;;5.43;3.47;;;13.80;99.90;;;;;;5056233;28;20449;-55
2024/02/15 02:47:17;;;;;;;7.70;3.43;;;13.80;99.90;;;;;;5056331;28;20437;-55
2024/02/15 02:49:44;;;;;;;6.73;3.50;;;13.80;99.90;;;;;;5056159;28;20453;-55
2024/02/15 02:52:11;;;;;;;12.50;3.90;;;13.80;99.90;;;;;;5055806;28;20452;-55
2024/02/15 02:54:38;;;;;;;9.17;3.30;;;13.70;99.90;;;;;;5055606;28;20452;-55
2024/02/15 02:57:06;;;;;;;7.40;3.63;;;13.70;99.90;;;;;;5056005;28;20447;-56
2024/02/15 02:59:35;;;;;;;7.30;2.63;;;13.70;99.90;;;;;;5055813;28;20853;-55
2024/02/15 03:02:03;;;;;;;6.43;2.80;;;13.70;99.90;;;;;;5055906;28;20445;-55
2024/02/15 03:04:30;;;;;;;15.30;3.63;;;13.70;99.90;;;;;;5055640;28;20485;-55
2024/02/15 03:06:57;;;;;;;15.40;3.70;;;13.70;99.90;;;;;;5055748;28;20453;-55
2024/02/15 03:09:29;;;;;;;7.63;3.47;;;13.70;99.90;;;;;;5055468;28;20527;-55
2024/02/15 03:11:56;;;;;;;5.77;3.63;;;13.60;99.90;;;;;;5056308;28;20484;-55
2024/02/15 03:14:22;;;;;;;12.13;3.60;;;13.60;99.90;;;;;;5055922;28;20442;-55
2024/02/15 03:16:50;;;;;;;7.10;3.13;;;13.60;99.90;;;;;;5055212;28;20449;-55
2024/02/15 03:19:17;;;;;;;8.00;3.37;;;13.60;99.90;;;;;;5055528;28;20490;-56
2024/02/15 03:21:46;;;;;;;6.83;3.33;;;13.60;99.90;;;;;;5055499;28;20441;-55
2024/02/15 03:24:13;;;;;;;6.77;2.60;;;13.60;99.90;;;;;;5055412;28;20452;-55
2024/02/15 03:26:40;;;;;;;10.93;3.30;;;13.70;99.90;;;;;;5055553;28;20442;-55
2024/02/15 03:29:09;;;;;;;7.90;3.00;;;13.60;99.90;;;;;;5055224;28;20509;-54
2024/02/15 03:31:37;;;;;;;5.37;2.70;;;13.60;99.90;;;;;;5055870;28;20445;-54
2024/02/15 03:34:05;;;;;;;6.07;2.70;;;13.60;99.90;;;;;;5055132;28;20961;-55
2024/02/15 03:36:32;;;;;;;5.20;3.03;;;13.70;99.90;;;;;;5055555;28;20449;-55
2024/02/15 03:38:59;;;;;;;8.03;2.83;;;13.70;99.90;;;;;;5055262;28;20535;-55
2024/02/15 03:41:32;;;;;;;11.83;3.63;;;13.70;99.90;;;;;;5055306;28;20452;-55
2024/02/15 03:44:00;;;;;;;6.33;2.90;;;13.70;99.90;;;;;;5055167;28;20915;-55
2024/02/15 03:46:27;;;;;;;11.37;3.00;;;13.70;99.90;;;;;;5055427;28;20485;-55
2024/02/15 03:48:54;;;;;;;8.23;3.40;;;13.60;99.90;;;;;;5054948;28;20458;-55
2024/02/15 03:51:24;;;;;;;7.03;3.00;;;13.60;99.90;;;;;;5053905;28;20559;-55
2024/02/15 03:53:52;;;;;;;10.60;3.53;;;13.60;99.90;;;;;;5054622;28;20465;-55
2024/02/15 03:56:18;;;;;;;8.37;2.50;;;13.60;99.90;;;;;;5055011;28;20442;-55
2024/02/15 03:58:45;;;;;;;10.00;3.20;;;13.60;99.90;;;;;;5054895;28;20491;-55
2024/02/15 04:01:15;;;;;;;7.17;2.90;;;13.70;99.90;;;;;;5054963;28;20442;-55
2024/02/15 04:03:41;;;;;;;5.03;3.00;;;13.70;99.90;;;;;;5054733;28;20540;-55
2024/02/15 04:06:09;;;;;;;3.37;2.23;;;13.70;99.90;;;;;;5054679;28;20441;-56
2024/02/15 04:08:38;;;;;;;4.40;2.77;;;13.80;99.90;;;;;;5054574;28;20556;-55
2024/02/15 04:11:07;;;;;;;6.20;2.37;;;13.70;99.90;;;;;;5054470;28;20445;-55
2024/02/15 04:13:34;;;;;;;11.93;3.07;;;13.70;99.90;;;;;;5054302;28;20548;-55
2024/02/15 04:16:01;;;;;;;2.70;2.30;;;13.70;99.90;;;;;;5054155;28;20445;-55
2024/02/15 04:18:31;;;;;;;4.73;2.50;;;13.70;99.90;;;;;;5054095;28;20486;-55
2024/02/15 04:20:58;;;;;;;3.80;2.57;;;13.70;99.90;;;;;;5054451;28;20521;-56
2024/02/15 04:23:25;;;;;;;4.27;2.50;;;13.70;99.90;;;;;;5054381;28;20468;-55
2024/02/15 04:25:54;;;;;;;4.23;2.10;;;13.60;99.90;;;;;;5054328;28;20442;-55
2024/02/15 04:28:21;;;;;;;3.17;2.17;;;13.70;99.90;;;;;;5053935;28;20515;-55
2024/02/15 04:30:48;;;;;;;3.77;2.17;;;13.70;99.90;;;;;;5054124;28;20442;-55
2024/02/15 04:33:16;;;;;;;4.27;2.00;;;13.70;99.90;;;;;;5054285;28;20449;-55
2024/02/15 04:35:43;;;;;;;3.73;1.63;;;13.70;99.90;;;;;;5054038;28;20449;-55
2024/02/15 04:38:10;;;;;;;2.03;1.50;;;13.70;99.90;;;;;;5053695;28;21045;-55
2024/02/15 04:40:39;;;;;;;3.93;1.73;;;13.70;99.90;;;;;;5054144;28;20437;-55
2024/02/15 04:43:08;;;;;;;8.57;1.60;;;13.70;99.90;;;;;;5053956;28;20453;-55
2024/02/15 04:45:35;;;;;;;4.00;1.70;;;13.60;99.90;;;;;;5053693;28;21014;-56
2024/02/15 04:48:02;;;;;;;3.23;1.70;;;13.60;99.90;;;;;;5054100;28;20465;-55
2024/02/15 04:50:30;;;;;;;4.50;1.70;;;13.60;99.90;;;;;;5053718;28;20475;-55
2024/02/15 04:52:56;;;;;;;3.10;2.07;;;13.60;99.90;;;;;;5053698;28;20438;-55
2024/02/15 04:55:26;;;;;;;4.80;2.40;;;13.60;99.90;;;;;;5053863;28;20426;-55
2024/02/15 04:57:54;;;;;;;5.37;2.00;;;13.60;99.90;;;;;;5053634;28;20984;-55
2024/02/15 05:00:25;;;;;;;2.77;1.80;;;13.60;99.90;;;;;;5053261;28;20999;-55
2024/02/15 05:02:52;;;;;;;3.80;1.87;;;13.60;99.90;;;;;;5053434;28;20438;-55
2024/02/15 05:05:19;;;;;;;4.70;1.90;;;13.60;99.90;;;;;;5053653;28;20452;-55
2024/02/15 05:07:48;;;;;;;3.30;2.27;;;13.60;99.90;;;;;;5053561;28;20469;-56
2024/02/15 05:10:16;;;;;;;2.20;2.00;;;13.60;99.90;;;;;;5053495;28;20442;-56
2024/02/15 05:12:43;;;;;;;4.30;1.90;;;13.60;99.90;;;;;;5054056;28;20452;-56
2024/02/15 05:15:10;;;;;;;5.23;2.47;;;13.60;99.90;;;;;;5053479;28;20441;-56
2024/02/15 05:17:40;;;;;;;6.87;2.00;;;13.60;99.90;;;;;;5053389;28;20948;-56
2024/02/15 05:20:11;;;;;;;4.80;2.60;;;13.50;99.90;;;;;;5053458;28;20994;-56
2024/02/15 05:22:38;;;;;;;3.70;3.33;;;13.50;99.90;;;;;;5053566;28;20459;-56
2024/02/15 05:25:07;;;;;;;8.20;2.57;;;13.50;99.90;;;;;;5053305;28;20476;-55
2024/02/15 05:27:33;;;;;;;7.40;3.30;;;13.50;99.90;;;;;;5053302;28;20490;-56
2024/02/15 05:30:00;;;;;;;4.00;3.30;;;13.50;99.90;;;;;;5053068;28;20944;-56
2024/02/15 05:32:27;;;;;;;8.57;4.00;;;13.50;99.90;;;;;;5053277;28;20437;-56
2024/02/15 05:34:55;;;;;;;8.57;3.93;;;13.50;99.90;;;;;;5053165;28;20441;-57
2024/02/15 05:37:23;;;;;;;10.03;4.20;;;13.50;99.90;;;;;;5053410;28;20446;-57
2024/02/15 05:39:53;;;;;;;14.53;4.83;;;13.40;99.90;;;;;;5053075;28;20489;-57
2024/02/15 05:42:20;;;;;;;5.03;3.40;;;13.50;99.90;;;;;;5052962;28;20437;-57
2024/02/15 05:44:47;;;;;;;6.07;4.67;;;13.40;99.90;;;;;;5053231;28;20441;-57
2024/02/15 05:47:14;;;;;;;7.10;3.97;;;13.40;99.90;;;;;;5053255;28;20448;-57
2024/02/15 05:49:41;;;;;;;4.77;3.40;;;13.50;99.90;;;;;;5053155;28;20464;-57
2024/02/15 05:52:09;;;;;;;3.83;2.37;;;13.50;99.90;;;;;;5052744;28;20533;-57
2024/02/15 05:54:36;;;;;;;4.90;2.40;;;13.40;99.90;;;;;;5052870;28;20449;-57
2024/02/15 05:57:02;;;;;;;8.60;3.00;;;13.40;99.90;;;;;;5053471;28;20441;-57
2024/02/15 05:59:29;;;;;;;3.20;2.27;;;13.40;99.90;;;;;;5053089;28;20572;-57
2024/02/15 06:01:56;;;;;;;5.33;2.30;;;13.50;99.90;;;;;;5053203;28;20441;-57
2024/02/15 06:04:25;;;;;;;6.50;2.23;;;13.40;99.90;;;;;;5053334;28;20449;-56
2024/02/15 06:06:53;;;;;;;3.83;2.63;;;13.40;99.90;;;;;;5053642;28;20457;-56
2024/02/15 06:09:24;;;;;;;4.60;2.83;;;13.40;99.90;;;;;;5052899;28;20472;-56
2024/02/15 06:11:55;;;;;;;6.60;2.90;;;13.40;99.90;;;;;;5053256;28;20438;-56
2024/02/15 06:14:22;;;;;;;5.20;3.00;;;13.40;99.90;;;;;;5054049;28;20437;-56
2024/02/15 06:16:48;;;;;;;7.13;2.80;;;13.40;99.90;;;;;;5056988;28;20441;-56
2024/02/15 06:19:15;;;;;;;8.80;3.77;;;13.40;99.90;;;;;;5056822;28;20521;-56
2024/02/15 06:21:43;;;;;;;8.47;3.40;;;13.40;99.90;;;;;;5056956;28;20456;-56
2024/02/15 06:24:10;;;;;;;6.57;3.20;;;13.40;99.90;;;;;;5056860;28;20544;-56
2024/02/15 06:26:38;;;;;;;3.10;2.50;;;13.40;99.90;;;;;;5056476;28;21023;-56
2024/02/15 06:40:23;;;;;;;7.00;2.63;;;13.30;99.90;;;;;;5056596;28;20958;-56
2024/02/15 06:42:52;;;;;;;4.33;3.07;;;13.30;99.90;;;;;;5056305;28;20823;-56
2024/02/15 06:45:19;;;;;;;7.23;2.70;;;13.20;99.90;;;;;;5056426;28;20441;-56
2024/02/15 06:47:46;;;;;;;8.90;2.43;;;13.20;99.90;;;;;;5055924;28;21015;-55
2024/02/15 06:50:14;;;;;;;5.20;2.67;;;13.30;99.90;;;;;;5055976;28;20525;-55
2024/02/15 06:52:41;;;;;;;2.70;2.13;;;13.20;99.90;;;;;;5056798;28;20448;-55
2024/02/15 06:55:11;;;;;;;3.00;2.30;;;13.30;99.90;;;;;;5056560;28;20528;-55
2024/02/15 06:57:40;;;;;;;6.57;3.13;;;13.30;99.90;;;;;;5056451;28;20434;-56
2024/02/15 07:00:14;;;;;;;4.00;2.40;;;13.30;99.90;;;;;;5056136;28;20575;-56
2024/02/15 07:02:44;;;;;;;4.20;2.37;;;13.30;99.90;;;;;;5055968;28;20965;-56
2024/02/15 07:05:11;;;;;;;5.47;3.20;;;13.30;99.90;;;;;;5056066;28;20445;-56
2024/02/15 07:07:38;;;;;;;3.57;2.30;;;13.30;99.90;;;;;;5056201;28;20444;-57
2024/02/15 07:10:06;;;;;;;5.80;2.33;;;13.30;99.90;;;;;;5055520;28;20940;-57
2024/02/15 07:12:33;;;;;;;10.70;3.23;;;13.30;99.90;;;;;;5055972;28;20970;-56
2024/02/15 07:15:01;;;;;;;5.90;3.23;;;13.30;99.90;;;;;;5055759;28;20450;-56
2024/02/15 07:17:29;;;;;;;10.63;2.87;;;13.40;99.90;;;;;;5055661;28;20445;-56
2024/02/15 07:19:56;;;;;;;8.00;2.93;;;13.30;99.90;;;;;;5055842;28;20848;-55
2024/02/15 07:22:23;;;;;;;5.97;2.73;;;13.40;99.90;;;;;;5055884;28;20445;-56
2024/02/15 07:24:49;;;;;;;7.90;2.40;;;13.40;99.90;;;;;;5055411;28;20819;-56
2024/02/15 07:27:16;;;;;;;3.63;2.13;;;13.40;99.90;;;;;;5055794;28;20818;-57
2024/02/15 07:29:43;;;;;;;8.63;2.70;;;13.40;99.90;;;;;;5055606;28;20465;-56
2024/02/15 07:32:11;;;;;;;12.50;3.17;;;13.40;99.90;;;;;;5055496;28;20449;-56
2024/02/15 07:34:41;;;;;;;8.80;2.90;;;13.30;99.90;;;;;;5055315;28;20965;-56
2024/02/15 07:37:09;;;;;;;5.03;2.30;;;13.30;99.90;;;;;;5055532;28;20449;-56
2024/02/15 07:39:36;;;;;;;7.27;2.40;;;13.30;99.90;;;;;;5055384;28;20481;-56
2024/02/15 07:42:04;;;;;;;4.27;2.80;;;13.20;99.90;;;;;;5055495;28;20825;-56
2024/02/15 07:44:32;;;;;;;5.60;2.73;;;13.20;99.90;;;;;;5055498;28;20453;-56
2024/02/15 07:47:00;;;;;;;7.40;2.80;;;13.20;99.90;;;;;;5055372;28;21005;-56
2024/02/15 07:49:27;;;;;;;7.40;3.07;;;13.20;99.90;;;;;;5055595;28;20519;-56
2024/02/15 07:51:55;;;;;;;8.00;2.80;;;13.20;99.90;;;;;;5055412;28;20473;-56
2024/02/15 07:54:24;;;;;;;4.37;2.50;;;13.30;99.90;;;;;;5055028;28;20512;-56
2024/02/15 07:56:51;;;;;;;8.93;3.47;;;13.30;99.90;;;;;;5055455;28;20448;-56
2024/02/15 07:59:18;;;;;;;6.93;2.53;;;13.30;99.90;;;;;;5055591;28;20975;-56
2024/02/15 08:01:47;;;;;;;8.80;3.20;;;13.30;99.90;;;;;;5055231;28;20457;-57
2024/02/15 08:04:14;;;;;;;5.17;2.67;;;13.40;99.90;;;;;;5055313;28;20445;-57
2024/02/15 08:06:41;;;;;;;12.87;2.90;;;13.40;99.90;;;;;;5055276;28;20441;-56
2024/02/15 08:09:13;;;;;;;5.53;2.63;;;13.40;99.90;;;;;;5055434;28;20501;-56
2024/02/15 08:11:40;;;;;;;6.73;2.27;;;13.50;99.90;;;;;;5054736;28;20430;-57
2024/02/15 08:14:10;;;;;;;8.20;2.67;;;13.50;99.90;;;;;;5056272;28;20473;-57
2024/02/15 08:16:39;;;;;;;6.67;3.50;;;13.50;99.90;;;;;;5055138;28;20971;-57
2024/02/15 08:19:06;;;;;;;8.30;2.60;;;13.60;99.90;;;;;;5055010;28;20461;-57
2024/02/15 08:21:36;;;;;;;6.53;2.30;;;13.70;99.90;;;;;;5055552;28;20549;-57
2024/02/15 08:24:05;;;;;;;4.90;1.97;;;13.70;99.90;;;;;;5055025;28;20500;-57
2024/02/15 08:26:35;;;;;;;6.60;2.63;;;13.80;99.90;;;;;;5054955;28;20442;-56
2024/02/15 08:29:03;;;;;;;4.83;2.50;;;13.80;99.90;;;;;;5054896;28;20469;-56
2024/02/15 08:31:30;;;;;;;5.40;2.27;;;13.90;99.90;;;;;;5056371;28;20449;-56
2024/02/15 08:33:57;;;;;;;4.10;2.43;;;14.00;99.90;;;;;;5055569;28;20454;-56
2024/02/15 08:36:24;;;;;;;5.60;2.17;;;14.10;99.90;;;;;;5055519;28;20507;-56
2024/02/15 08:38:51;;;;;;;8.03;2.40;;;14.10;99.90;;;;;;5055030;28;20465;-56
2024/02/15 08:41:20;;;;;;;7.17;2.10;;;14.10;99.90;;;;;;5056172;28;20491;-56
2024/02/15 08:43:49;;;;;;;3.07;2.40;;;14.20;99.90;;;;;;5056918;28;20446;-56
2024/02/15 08:46:16;;;;;;;5.17;2.10;;;14.20;99.90;;;;;;5056858;28;20822;-56
2024/02/15 08:48:43;;;;;;;5.00;2.17;;;14.20;99.90;;;;;;5055763;28;20671;-56
2024/02/15 08:51:10;;;;;;;6.83;2.27;;;14.20;99.90;;;;;;5055562;28;20536;-56
2024/02/15 08:53:37;;;;;;;6.20;1.80;;;14.30;99.90;;;;;;5054025;28;20458;-56
2024/02/15 08:56:04;;;;;;;7.40;2.80;;;14.30;99.90;;;;;;5054137;28;20445;-56
2024/02/15 08:58:31;;;;;;;7.63;2.93;;;14.30;99.90;;;;;;5053716;28;20466;-56
2024/02/15 09:00:59;;;;;;;7.40;2.50;;;14.40;99.90;;;;;;5053741;28;20851;-56
2024/02/15 09:03:26;;;;;;;4.43;2.07;;;14.40;99.90;;;;;;5053428;28;20448;-55
2024/02/15 09:05:53;;;;;;;4.73;2.60;;;14.50;99.90;;;;;;5053717;28;20540;-56
2024/02/15 09:08:20;;;;;;;4.63;2.57;;;14.40;99.90;;;;;;5053502;28;20462;-56
2024/02/15 09:10:47;;;;;;;8.13;1.93;;;14.40;99.90;;;;;;5053173;28;20946;-56
2024/02/15 09:13:14;;;;;;;6.60;2.10;;;14.50;99.90;;;;;;5053404;28;20445;-56
2024/02/15 09:15:42;;;;;;;5.17;1.90;;;14.50;99.90;;;;;;5053584;28;20450;-56
2024/02/15 09:18:10;;;;;;;3.60;2.20;;;14.60;99.90;;;;;;5053329;28;20468;-56
2024/02/15 09:20:39;;;;;;;5.97;2.27;;;14.60;99.90;;;;;;5053306;28;20535;-56
2024/02/15 09:23:09;;;;;;;6.80;3.00;;;14.60;99.90;;;;;;5053348;28;20881;-56
2024/02/15 09:25:38;;;;;;;5.37;2.27;;;14.70;99.90;;;;;;5053304;28;20480;-55
2024/02/15 09:28:05;;;;;;;3.97;1.77;;;14.70;99.90;;;;;;5053232;28;20518;-56
2024/02/15 09:30:34;;;;;;;4.60;1.67;;;14.80;99.90;;;;;;5052950;28;20453;-56
2024/02/15 09:33:03;;;;;;;4.20;1.60;;;14.90;99.90;;;;;;5053067;28;20540;-55
2024/02/15 09:35:32;;;;;;;3.70;1.77;;;14.90;99.90;;;;;;5053201;28;20484;-56
2024/02/15 09:37:59;;;;;;;6.20;2.27;;;14.90;99.90;;;;;;5053095;28;20553;-55
2024/02/15 09:40:28;;;;;;;2.87;1.70;;;15.00;99.90;;;;;;5053106;28;20568;-56
2024/02/15 09:42:55;;;;;;;5.40;2.00;;;15.00;99.90;;;;;;5053128;28;20445;-56
2024/02/15 09:45:24;;;;;;;2.33;1.80;;;14.90;99.90;;;;;;5053089;28;20442;-56
2024/02/15 09:47:52;;;;;;;5.47;2.90;;;14.90;99.90;;;;;;5052687;28;20466;-56
2024/02/15 09:50:19;;;;;;;3.87;1.90;;;14.90;99.90;;;;;;5055549;28;20452;-56
2024/02/15 09:52:53;;;;;;;9.67;2.03;;;14.90;99.90;;;;;;5057070;28;20446;-56
2024/02/15 09:55:22;;;;;;;3.97;1.80;;;15.00;99.90;;;;;;5057186;28;20436;-56
2024/02/15 09:57:51;;;;;;;5.73;1.80;;;15.00;99.90;;;;;;5057102;28;20519;-56
2024/02/15 10:00:18;;;;;;;8.03;2.07;;;15.00;99.90;;;;;;5057126;28;20485;-56
2024/02/15 10:02:45;;;;;;;2.50;1.73;;;15.00;99.90;;;;;;5056748;28;20443;-56
2024/02/15 10:05:13;;;;;;;2.97;1.70;;;15.00;99.90;;;;;;5056989;28;20460;-56
2024/02/15 10:07:39;;;;;;;1.77;1.47;;;15.00;99.90;;;;;;5057694;28;20452;-55
2024/02/15 10:10:19;;;;;;;4.20;2.00;;;15.10;99.90;;;;;;5057142;28;20962;-55
2024/02/15 10:12:48;;;;;;;3.80;2.30;;;15.10;99.90;;;;;;5057476;28;20437;-56
2024/02/15 10:15:29;;;;;;;5.03;1.73;;;15.10;99.90;;;;;;5056995;28;20442;-56
2024/02/15 10:17:56;;;;;;;4.23;1.97;;;15.30;99.90;;;;;;5057248;28;20476;-56
2024/02/15 10:20:25;;;;;;;6.33;1.90;;;15.20;99.90;;;;;;5056591;28;21002;-56
2024/02/15 10:22:52;;;;;;;3.03;1.43;;;15.30;99.90;;;;;;5056886;28;20540;-55
2024/02/15 10:25:22;;;;;;;6.00;2.10;;;15.40;99.90;;;;;;5056995;28;20445;-56
2024/02/15 10:27:49;;;;;;;3.50;2.50;;;15.50;99.90;;;;;;5056814;28;20472;-56
2024/02/15 10:30:17;;;;;;;3.90;1.70;;;15.50;99.90;;;;;;5056685;28;20948;-55
2024/02/15 10:32:44;;;;;;;4.60;2.00;;;15.60;99.90;;;;;;5055870;28;20962;-55
2024/02/15 10:35:15;;;;;;;4.50;2.07;;;15.60;99.90;;;;;;5056412;28;20515;-55
2024/02/15 10:37:43;;;;;;;4.00;1.70;;;15.70;99.90;;;;;;5056410;28;20430;-55
2024/02/15 10:40:13;;;;;;;4.13;2.00;;;15.80;99.90;;;;;;5056120;28;20484;-55
2024/02/15 10:42:42;;;;;;;3.23;1.93;;;15.90;99.90;;;;;;5057100;28;20470;-56
2024/02/15 10:45:11;;;;;;;5.90;2.50;;;16.00;99.90;;;;;;5056551;28;20438;-55
2024/02/15 10:47:39;;;;;;;4.83;1.60;;;16.20;99.90;;;;;;5055988;28;20455;-56
2024/02/15 10:50:07;;;;;;;5.63;2.47;;;16.40;99.90;;;;;;5056323;28;20450;-56
2024/02/15 10:52:39;;;;;;;3.97;1.70;;;16.50;99.90;;;;;;5056130;28;20935;-55
2024/02/15 10:55:13;;;;;;;4.77;2.00;;;16.60;99.90;;;;;;5055846;28;20542;-56
2024/02/15 10:57:46;;;;;;;5.53;1.90;;;16.70;99.90;;;;;;5056510;28;20426;-56
2024/02/15 11:00:20;;;;;;;5.27;2.33;;;16.90;99.90;;;;;;5055650;28;20437;-55
2024/02/15 11:02:53;;;;;;;7.97;2.40;;;17.00;99.90;;;;;;5055765;28;20434;-55
2024/02/15 11:05:23;;;;;;;3.63;1.90;;;17.10;99.90;;;;;;5055752;28;20809;-56
2024/02/15 11:07:50;;;;;;;3.63;1.40;;;17.20;99.90;;;;;;5055581;28;20508;-55
2024/02/15 11:10:18;;;;;;;2.37;1.60;;;17.30;99.90;;;;;;5055739;28;20503;-56
2024/02/15 11:12:47;;;;;;;5.90;1.63;;;17.30;99.90;;;;;;5055797;28;20452;-56
2024/02/15 11:15:48;;;;;;;2.80;1.33;;;17.30;99.90;;;;;;5055782;28;20532;-56
2024/02/15 11:18:48;;;;;;;2.03;1.30;;;17.30;99.90;;;;;;5055406;28;20476;-56
2024/02/15 11:21:16;;;;;;;3.33;1.90;;;17.40;99.90;;;;;;5055506;28;20485;-55
2024/02/15 11:23:44;;;;;;;4.10;1.77;;;17.50;99.90;;;;;;5059293;28;20444;-55
2024/02/15 11:26:31;;;;;;;6.80;2.87;;;17.60;99.90;;;;;;5075472;28;20459;-55
2024/02/15 11:28:59;;;;;;;2.93;1.50;;;17.80;99.90;;;;;;5075015;28;20974;-55
2024/02/15 11:31:54;;;;;;;2.30;1.50;;;18.00;99.90;;;;;;5075427;28;20439;-56
2024/02/15 11:34:43;;;;;;;1.20;1.07;;;18.30;99.90;;;;;;5061574;28;20795;-56
2024/02/15 11:37:09;;;;;;;2.40;1.40;;;18.60;99.90;;;;;;5075222;28;20854;-56
2024/02/15 11:39:43;;;;;;;3.77;1.63;;;18.90;99.70;;;;;;5075318;28;20560;-56
2024/02/15 11:42:28;;;;;;;3.27;1.57;;;19.10;99.10;;;;;;5075262;28;20472;-56
2024/02/15 11:45:05;;;;;;;3.63;2.00;;;19.30;98.40;;;;;;5076302;28;20852;-56
2024/02/15 11:47:35;;;;;;;5.40;1.93;;;19.40;97.70;;;;;;5075196;28;20444;-56
2024/02/15 11:50:02;;;;;;;5.13;1.70;;;19.50;97.60;;;;;;5075429;28;20449;-56
2024/02/15 11:52:29;;;;;;;2.90;1.60;;;19.60;97.00;;;;;;5074635;28;20498;-56
2024/02/15 11:55:07;;;;;;;4.77;1.63;;;19.70;96.50;;;;;;5074634;28;20455;-55
2024/02/15 11:57:47;;;;;;;3.17;1.33;;;19.80;96.10;;;;;;5074901;28;20429;-56
2024/02/15 12:19:50;;;;;;;2.23;1.10;;;20.70;91.30;;;;;;5040560;28;20445;-56
2024/02/15 12:22:22;;;;;;;2.07;0.87;;;20.80;91.10;;;;;;5074365;28;20480;-56
2024/02/15 12:24:56;;;;;;;1.60;0.77;;;20.70;90.50;;;;;;5074308;28;20899;-56
2024/02/15 12:27:26;;;;;;;3.40;1.10;;;20.70;90.00;;;;;;5074353;28;20555;-56
2024/02/15 12:29:55;;;;;;;1.53;0.97;;;20.70;90.10;;;;;;5074353;28;20822;-56
2024/02/15 12:32:24;;;;;;;4.30;1.50;;;20.60;89.90;;;;;;5073966;28;20444;-56
2024/02/15 12:34:51;;;;;;;3.13;1.20;;;20.60;90.00;;;;;;5073811;28;20954;-56
2024/02/15 12:37:20;;;;;;;4.43;1.30;;;20.60;90.00;;;;;;5074272;28;20449;-55
2024/02/15 12:39:48;;;;;;;2.07;1.07;;;20.60;89.60;;;;;;5074229;28;20479;-56
2024/02/15 12:42:16;;;;;;;2.10;1.20;;;20.50;89.60;;;;;;5074115;28;20542;-56
2024/02/15 12:44:46;;;;;;;2.40;1.13;;;20.40;89.50;;;;;;5073819;28;20515;-56
2024/02/15 12:47:24;;;;;;;4.90;1.10;;;20.30;90.30;;;;;;5074138;28;20443;-56
2024/02/15 12:49:52;;;;;;;2.00;1.10;;;20.20;90.40;;;;;;5073884;28;20460;-56
2024/02/15 12:52:36;;;;;;;3.77;1.00;;;20.10;91.10;;;;;;5074651;28;20479;-56
2024/02/15 12:55:11;;;;;;;4.10;1.00;;;20.00;91.40;;;;;;5073680;28;20861;-56
2024/02/15 12:57:40;;;;;;;3.73;1.03;;;19.90;91.60;;;;;;5073717;28;20491;-56
2024/02/15 13:00:17;;;;;;;3.90;0.80;;;19.90;91.50;;;;;;5074157;28;20428;-56
2024/02/15 13:02:46;;;;;;;2.20;1.03;;;19.90;91.90;;;;;;5073761;28;20507;-56
2024/02/15 13:05:13;;;;;;;3.13;1.13;;;19.80;91.90;;;;;;5073730;28;20444;-56
2024/02/15 13:07:40;;;;;;;1.40;0.93;;;19.80;92.30;;;;;;5073641;28;20471;-56
2024/02/15 13:10:08;;;;;;;2.30;0.87;;;19.70;92.40;;;;;;5073287;28;20946;-56
2024/02/15 13:12:37;;;;;;;2.93;0.90;;;19.70;91.80;;;;;;5073558;28;20450;-56
2024/02/15 13:15:06;;;;;;;1.43;0.70;;;19.60;91.90;;;;;;5073484;28;21017;-56
2024/02/15 13:17:34;;;;;;;5.63;1.17;;;19.60;91.90;;;;;;5073455;28;20452;-56
2024/02/15 13:20:10;;;;;;;3.87;1.47;;;19.60;91.80;;;;;;5074069;28;20920;-56
2024/02/15 13:22:38;;;;;;;4.30;1.30;;;19.60;92.00;;;;;;5073588;28;20472;-55
2024/02/15 13:25:07;;;;;;;3.23;1.10;;;19.60;91.70;;;;;;5073668;28;20449;-56